sensor_id;sensor_type;location;lat;lon;timestamp;P1;durP1;ratioP1;P2;durP2;ratioP2
4839;SDS011;2434;48.486;7.964;2022-07-23T00:01:16;6.13;;;5.63;;
4839;SDS011;2434;48.486;7.964;2022-07-23T00:03:53;6.70;;;5.60;;
4839;SDS011;2434;48.486;7.964;2022-07-23T00:06:21;5.23;;;4.73;;
4839;SDS011;2434;48.486;7.964;2022-07-23T00:08:51;5.87;;;5.23;;
4839;SDS011;2434;48.486;7.964;2022-07-23T00:11:20;5.57;;;5.17;;
4839;SDS011;2434;48.486;7.964;2022-07-23T00:13:48;6.30;;;5.23;;
4839;SDS011;2434;48.486;7.964;2022-07-23T00:16:17;6.40;;;4.73;;
4839;SDS011;2434;48.486;7.964;2022-07-23T00:18:45;6.53;;;5.93;;
4839;SDS011;2434;48.486;7.964;2022-07-23T00:21:13;10.83;;;5.97;;
4839;SDS011;2434;48.486;7.964;2022-07-23T00:23:43;7.47;;;5.20;;
4839;SDS011;2434;48.486;7.964;2022-07-23T00:26:11;6.10;;;5.50;;
4839;SDS011;2434;48.486;7.964;2022-07-23T00:28:39;8.00;;;6.17;;
4839;SDS011;2434;48.486;7.964;2022-07-23T00:31:08;8.00;;;5.27;;
4839;SDS011;2434;48.486;7.964;2022-07-23T00:33:37;6.53;;;5.90;;
4839;SDS011;2434;48.486;7.964;2022-07-23T00:36:05;6.13;;;5.60;;
4839;SDS011;2434;48.486;7.964;2022-07-23T00:38:34;6.10;;;5.60;;
4839;SDS011;2434;48.486;7.964;2022-07-23T00:41:04;6.13;;;5.40;;
4839;SDS011;2434;48.486;7.964;2022-07-23T00:43:32;6.60;;;5.43;;
4839;SDS011;2434;48.486;7.964;2022-07-23T00:46:01;6.70;;;6.10;;
4839;SDS011;2434;48.486;7.964;2022-07-23T00:48:29;6.30;;;5.77;;
4839;SDS011;2434;48.486;7.964;2022-07-23T00:50:58;6.90;;;5.20;;
4839;SDS011;2434;48.486;7.964;2022-07-23T00:53:26;6.33;;;5.73;;
4839;SDS011;2434;48.486;7.964;2022-07-23T00:55:55;6.33;;;5.73;;
4839;SDS011;2434;48.486;7.964;2022-07-23T00:58:24;6.17;;;5.63;;
4839;SDS011;2434;48.486;7.964;2022-07-23T01:00:53;9.50;;;5.00;;
4839;SDS011;2434;48.486;7.964;2022-07-23T01:03:21;5.57;;;5.13;;
4839;SDS011;2434;48.486;7.964;2022-07-23T01:05:50;5.53;;;5.03;;
4839;SDS011;2434;48.486;7.964;2022-07-23T01:08:18;6.87;;;6.27;;
4839;SDS011;2434;48.486;7.964;2022-07-23T01:10:48;10.00;;;5.23;;
4839;SDS011;2434;48.486;7.964;2022-07-23T01:13:18;6.77;;;6.27;;
4839;SDS011;2434;48.486;7.964;2022-07-23T01:15:47;5.53;;;5.03;;
4839;SDS011;2434;48.486;7.964;2022-07-23T01:18:16;5.87;;;5.33;;
4839;SDS011;2434;48.486;7.964;2022-07-23T01:20:45;6.33;;;5.83;;
4839;SDS011;2434;48.486;7.964;2022-07-23T01:23:15;7.43;;;5.97;;
4839;SDS011;2434;48.486;7.964;2022-07-23T01:25:52;7.30;;;6.70;;
4839;SDS011;2434;48.486;7.964;2022-07-23T01:28:22;6.53;;;5.90;;
4839;SDS011;2434;48.486;7.964;2022-07-23T01:30:50;7.50;;;6.23;;
4839;SDS011;2434;48.486;7.964;2022-07-23T01:33:19;6.10;;;5.60;;
4839;SDS011;2434;48.486;7.964;2022-07-23T01:35:47;5.90;;;5.43;;
4839;SDS011;2434;48.486;7.964;2022-07-23T01:38:24;7.07;;;6.30;;
4839;SDS011;2434;48.486;7.964;2022-07-23T01:40:52;7.73;;;6.80;;
4839;SDS011;2434;48.486;7.964;2022-07-23T01:43:25;6.30;;;5.80;;
4839;SDS011;2434;48.486;7.964;2022-07-23T01:45:54;6.10;;;5.60;;
4839;SDS011;2434;48.486;7.964;2022-07-23T01:48:25;6.50;;;5.90;;
4839;SDS011;2434;48.486;7.964;2022-07-23T01:51:11;6.90;;;6.30;;
4839;SDS011;2434;48.486;7.964;2022-07-23T01:53:43;6.20;;;5.60;;
4839;SDS011;2434;48.486;7.964;2022-07-23T01:56:11;15.77;;;6.50;;
4839;SDS011;2434;48.486;7.964;2022-07-23T01:58:41;6.67;;;6.07;;
4839;SDS011;2434;48.486;7.964;2022-07-23T02:01:09;6.80;;;5.80;;
4839;SDS011;2434;48.486;7.964;2022-07-23T02:03:38;6.23;;;5.83;;
4839;SDS011;2434;48.486;7.964;2022-07-23T02:06:08;9.33;;;5.80;;
4839;SDS011;2434;48.486;7.964;2022-07-23T02:08:36;11.87;;;6.07;;
4839;SDS011;2434;48.486;7.964;2022-07-23T02:11:06;7.43;;;6.10;;
4839;SDS011;2434;48.486;7.964;2022-07-23T02:13:34;7.00;;;6.40;;
4839;SDS011;2434;48.486;7.964;2022-07-23T02:16:03;7.07;;;6.37;;
4839;SDS011;2434;48.486;7.964;2022-07-23T02:18:32;6.97;;;6.00;;
4839;SDS011;2434;48.486;7.964;2022-07-23T02:21:00;7.33;;;6.23;;
4839;SDS011;2434;48.486;7.964;2022-07-23T02:23:28;7.67;;;7.07;;
4839;SDS011;2434;48.486;7.964;2022-07-23T02:25:56;6.77;;;6.10;;
4839;SDS011;2434;48.486;7.964;2022-07-23T02:28:26;8.87;;;7.00;;
4839;SDS011;2434;48.486;7.964;2022-07-23T02:30:56;6.57;;;5.93;;
4839;SDS011;2434;48.486;7.964;2022-07-23T02:33:24;6.20;;;5.70;;
4839;SDS011;2434;48.486;7.964;2022-07-23T02:35:53;6.43;;;5.90;;
4839;SDS011;2434;48.486;7.964;2022-07-23T02:38:21;8.50;;;5.63;;
4839;SDS011;2434;48.486;7.964;2022-07-23T02:40:50;10.87;;;6.60;;
4839;SDS011;2434;48.486;7.964;2022-07-23T02:43:18;6.50;;;6.00;;
4839;SDS011;2434;48.486;7.964;2022-07-23T02:45:48;6.13;;;5.43;;
4839;SDS011;2434;48.486;7.964;2022-07-23T02:48:16;6.83;;;6.07;;
4839;SDS011;2434;48.486;7.964;2022-07-23T02:50:47;6.30;;;5.37;;
4839;SDS011;2434;48.486;7.964;2022-07-23T02:53:22;6.40;;;5.90;;
4839;SDS011;2434;48.486;7.964;2022-07-23T02:55:50;6.80;;;5.60;;
4839;SDS011;2434;48.486;7.964;2022-07-23T02:58:20;6.23;;;5.77;;
4839;SDS011;2434;48.486;7.964;2022-07-23T03:00:50;7.37;;;6.67;;
4839;SDS011;2434;48.486;7.964;2022-07-23T03:03:18;7.07;;;6.37;;
4839;SDS011;2434;48.486;7.964;2022-07-23T03:05:47;6.60;;;6.00;;
4839;SDS011;2434;48.486;7.964;2022-07-23T03:08:15;6.93;;;5.70;;
4839;SDS011;2434;48.486;7.964;2022-07-23T03:10:49;7.43;;;6.73;;
4839;SDS011;2434;48.486;7.964;2022-07-23T03:13:17;8.80;;;7.03;;
4839;SDS011;2434;48.486;7.964;2022-07-23T03:15:45;7.60;;;6.57;;
4839;SDS011;2434;48.486;7.964;2022-07-23T03:18:15;6.17;;;5.67;;
4839;SDS011;2434;48.486;7.964;2022-07-23T03:20:44;7.33;;;5.83;;
4839;SDS011;2434;48.486;7.964;2022-07-23T03:23:12;6.90;;;6.30;;
4839;SDS011;2434;48.486;7.964;2022-07-23T03:25:40;11.00;;;6.77;;
4839;SDS011;2434;48.486;7.964;2022-07-23T03:28:09;7.00;;;6.40;;
4839;SDS011;2434;48.486;7.964;2022-07-23T03:30:38;6.53;;;6.03;;
4839;SDS011;2434;48.486;7.964;2022-07-23T03:33:06;6.10;;;5.60;;
4839;SDS011;2434;48.486;7.964;2022-07-23T03:35:36;7.53;;;6.30;;
4839;SDS011;2434;48.486;7.964;2022-07-23T03:38:24;6.90;;;6.27;;
4839;SDS011;2434;48.486;7.964;2022-07-23T03:40:53;6.43;;;5.87;;
4839;SDS011;2434;48.486;7.964;2022-07-23T03:43:21;6.70;;;6.20;;
4839;SDS011;2434;48.486;7.964;2022-07-23T03:45:50;7.20;;;6.50;;
4839;SDS011;2434;48.486;7.964;2022-07-23T03:48:19;6.93;;;6.23;;
4839;SDS011;2434;48.486;7.964;2022-07-23T03:50:48;6.40;;;5.80;;
4839;SDS011;2434;48.486;7.964;2022-07-23T03:53:17;6.50;;;5.90;;
4839;SDS011;2434;48.486;7.964;2022-07-23T03:55:45;10.30;;;5.90;;
4839;SDS011;2434;48.486;7.964;2022-07-23T03:58:13;6.63;;;6.03;;
4839;SDS011;2434;48.486;7.964;2022-07-23T04:00:42;8.90;;;6.83;;
4839;SDS011;2434;48.486;7.964;2022-07-23T04:03:11;6.80;;;6.27;;
4839;SDS011;2434;48.486;7.964;2022-07-23T04:05:40;6.67;;;6.10;;
4839;SDS011;2434;48.486;7.964;2022-07-23T04:08:18;7.20;;;6.47;;
4839;SDS011;2434;48.486;7.964;2022-07-23T04:10:50;8.80;;;6.87;;
4839;SDS011;2434;48.486;7.964;2022-07-23T04:13:20;6.70;;;6.10;;
4839;SDS011;2434;48.486;7.964;2022-07-23T04:15:48;7.23;;;6.60;;
4839;SDS011;2434;48.486;7.964;2022-07-23T04:18:17;7.10;;;6.50;;
4839;SDS011;2434;48.486;7.964;2022-07-23T04:20:59;7.87;;;6.17;;
4839;SDS011;2434;48.486;7.964;2022-07-23T04:23:29;7.83;;;6.50;;
4839;SDS011;2434;48.486;7.964;2022-07-23T04:25:58;6.97;;;6.47;;
4839;SDS011;2434;48.486;7.964;2022-07-23T04:28:26;7.00;;;6.40;;
4839;SDS011;2434;48.486;7.964;2022-07-23T04:30:55;8.03;;;7.23;;
4839;SDS011;2434;48.486;7.964;2022-07-23T04:33:24;7.00;;;6.50;;
4839;SDS011;2434;48.486;7.964;2022-07-23T04:35:55;8.47;;;6.93;;
4839;SDS011;2434;48.486;7.964;2022-07-23T04:38:24;6.43;;;5.83;;
4839;SDS011;2434;48.486;7.964;2022-07-23T04:40:59;8.30;;;6.10;;
4839;SDS011;2434;48.486;7.964;2022-07-23T04:43:27;7.43;;;6.10;;
4839;SDS011;2434;48.486;7.964;2022-07-23T04:45:55;9.07;;;6.67;;
4839;SDS011;2434;48.486;7.964;2022-07-23T04:48:25;6.50;;;5.90;;
4839;SDS011;2434;48.486;7.964;2022-07-23T04:51:03;6.13;;;5.63;;
4839;SDS011;2434;48.486;7.964;2022-07-23T04:53:33;6.77;;;6.17;;
4839;SDS011;2434;48.486;7.964;2022-07-23T04:56:06;5.90;;;5.50;;
4839;SDS011;2434;48.486;7.964;2022-07-23T04:58:34;6.50;;;5.90;;
4839;SDS011;2434;48.486;7.964;2022-07-23T05:01:03;7.23;;;6.63;;
4839;SDS011;2434;48.486;7.964;2022-07-23T05:03:34;6.80;;;6.30;;
4839;SDS011;2434;48.486;7.964;2022-07-23T05:06:02;7.30;;;6.37;;
4839;SDS011;2434;48.486;7.964;2022-07-23T05:08:30;11.37;;;7.00;;
4839;SDS011;2434;48.486;7.964;2022-07-23T05:10:59;6.27;;;5.67;;
4839;SDS011;2434;48.486;7.964;2022-07-23T05:16:09;7.40;;;6.70;;
4839;SDS011;2434;48.486;7.964;2022-07-23T05:18:38;6.60;;;5.87;;
4839;SDS011;2434;48.486;7.964;2022-07-23T05:21:06;6.80;;;6.20;;
4839;SDS011;2434;48.486;7.964;2022-07-23T05:23:35;5.90;;;5.40;;
4839;SDS011;2434;48.486;7.964;2022-07-23T05:26:04;6.47;;;5.97;;
4839;SDS011;2434;48.486;7.964;2022-07-23T05:28:32;7.63;;;6.53;;
4839;SDS011;2434;48.486;7.964;2022-07-23T05:31:02;7.80;;;7.20;;
4839;SDS011;2434;48.486;7.964;2022-07-23T05:33:31;7.43;;;6.20;;
4839;SDS011;2434;48.486;7.964;2022-07-23T05:36:01;8.63;;;6.10;;
4839;SDS011;2434;48.486;7.964;2022-07-23T05:38:32;6.33;;;5.90;;
4839;SDS011;2434;48.486;7.964;2022-07-23T05:41:03;7.50;;;6.80;;
4839;SDS011;2434;48.486;7.964;2022-07-23T05:43:32;7.20;;;6.33;;
4839;SDS011;2434;48.486;7.964;2022-07-23T05:46:10;7.70;;;7.00;;
4839;SDS011;2434;48.486;7.964;2022-07-23T05:48:41;7.20;;;6.60;;
4839;SDS011;2434;48.486;7.964;2022-07-23T05:51:32;6.67;;;6.17;;
4839;SDS011;2434;48.486;7.964;2022-07-23T05:54:01;6.97;;;6.30;;
4839;SDS011;2434;48.486;7.964;2022-07-23T05:56:35;9.30;;;6.27;;
4839;SDS011;2434;48.486;7.964;2022-07-23T05:59:06;7.30;;;6.60;;
4839;SDS011;2434;48.486;7.964;2022-07-23T06:01:37;8.10;;;7.30;;
4839;SDS011;2434;48.486;7.964;2022-07-23T06:04:09;9.00;;;8.10;;
4839;SDS011;2434;48.486;7.964;2022-07-23T06:06:42;11.40;;;7.47;;
4839;SDS011;2434;48.486;7.964;2022-07-23T06:09:11;7.70;;;7.00;;
4839;SDS011;2434;48.486;7.964;2022-07-23T06:11:40;11.40;;;8.17;;
4839;SDS011;2434;48.486;7.964;2022-07-23T06:14:10;8.90;;;8.10;;
4839;SDS011;2434;48.486;7.964;2022-07-23T06:16:50;7.37;;;6.77;;
4839;SDS011;2434;48.486;7.964;2022-07-23T06:19:18;8.47;;;7.43;;
4839;SDS011;2434;48.486;7.964;2022-07-23T06:21:46;7.60;;;7.00;;
4839;SDS011;2434;48.486;7.964;2022-07-23T06:24:16;8.27;;;7.50;;
4839;SDS011;2434;48.486;7.964;2022-07-23T06:26:44;7.50;;;6.90;;
4839;SDS011;2434;48.486;7.964;2022-07-23T06:29:13;7.70;;;7.00;;
4839;SDS011;2434;48.486;7.964;2022-07-23T06:31:42;7.23;;;6.63;;
4839;SDS011;2434;48.486;7.964;2022-07-23T06:34:14;7.50;;;6.80;;
4839;SDS011;2434;48.486;7.964;2022-07-23T06:36:42;7.10;;;6.50;;
4839;SDS011;2434;48.486;7.964;2022-07-23T06:39:11;8.97;;;8.07;;
4839;SDS011;2434;48.486;7.964;2022-07-23T06:41:45;9.03;;;6.93;;
4839;SDS011;2434;48.486;7.964;2022-07-23T06:44:17;8.80;;;8.10;;
4839;SDS011;2434;48.486;7.964;2022-07-23T06:46:47;8.73;;;7.80;;
4839;SDS011;2434;48.486;7.964;2022-07-23T06:49:17;7.43;;;6.73;;
4839;SDS011;2434;48.486;7.964;2022-07-23T06:51:46;7.53;;;6.90;;
4839;SDS011;2434;48.486;7.964;2022-07-23T06:54:14;8.03;;;7.40;;
4839;SDS011;2434;48.486;7.964;2022-07-23T06:56:43;8.77;;;7.93;;
4839;SDS011;2434;48.486;7.964;2022-07-23T06:59:11;10.50;;;8.90;;
4839;SDS011;2434;48.486;7.964;2022-07-23T07:01:41;10.13;;;7.73;;
4839;SDS011;2434;48.486;7.964;2022-07-23T07:04:10;7.73;;;7.03;;
4839;SDS011;2434;48.486;7.964;2022-07-23T07:06:39;8.73;;;8.00;;
4839;SDS011;2434;48.486;7.964;2022-07-23T07:09:08;17.10;;;7.77;;
4839;SDS011;2434;48.486;7.964;2022-07-23T07:11:36;8.37;;;7.47;;
4839;SDS011;2434;48.486;7.964;2022-07-23T07:14:04;9.30;;;8.00;;
4839;SDS011;2434;48.486;7.964;2022-07-23T07:16:33;8.47;;;7.53;;
4839;SDS011;2434;48.486;7.964;2022-07-23T07:19:01;9.47;;;8.10;;
4839;SDS011;2434;48.486;7.964;2022-07-23T07:21:30;11.70;;;7.83;;
4839;SDS011;2434;48.486;7.964;2022-07-23T07:24:00;7.80;;;7.07;;
4839;SDS011;2434;48.486;7.964;2022-07-23T07:26:28;7.73;;;6.93;;
4839;SDS011;2434;48.486;7.964;2022-07-23T07:29:00;12.10;;;7.37;;
4839;SDS011;2434;48.486;7.964;2022-07-23T07:31:29;9.93;;;7.63;;
4839;SDS011;2434;48.486;7.964;2022-07-23T07:33:58;7.40;;;6.70;;
4839;SDS011;2434;48.486;7.964;2022-07-23T07:36:27;7.57;;;6.87;;
4839;SDS011;2434;48.486;7.964;2022-07-23T07:38:55;12.93;;;7.10;;
4839;SDS011;2434;48.486;7.964;2022-07-23T07:41:25;7.77;;;6.97;;
4839;SDS011;2434;48.486;7.964;2022-07-23T07:43:53;10.60;;;8.00;;
4839;SDS011;2434;48.486;7.964;2022-07-23T07:46:21;9.00;;;7.00;;
4839;SDS011;2434;48.486;7.964;2022-07-23T07:48:54;6.53;;;6.03;;
4839;SDS011;2434;48.486;7.964;2022-07-23T07:51:25;10.20;;;6.80;;
4839;SDS011;2434;48.486;7.964;2022-07-23T07:53:55;10.23;;;6.80;;
4839;SDS011;2434;48.486;7.964;2022-07-23T07:56:26;7.73;;;6.40;;
4839;SDS011;2434;48.486;7.964;2022-07-23T07:58:55;8.77;;;6.83;;
4839;SDS011;2434;48.486;7.964;2022-07-23T08:01:23;7.77;;;7.07;;
4839;SDS011;2434;48.486;7.964;2022-07-23T08:03:52;7.20;;;6.60;;
4839;SDS011;2434;48.486;7.964;2022-07-23T08:06:20;8.30;;;6.80;;
4839;SDS011;2434;48.486;7.964;2022-07-23T08:08:49;8.53;;;7.70;;
4839;SDS011;2434;48.486;7.964;2022-07-23T08:11:17;11.30;;;7.27;;
4839;SDS011;2434;48.486;7.964;2022-07-23T08:13:47;11.13;;;7.10;;
4839;SDS011;2434;48.486;7.964;2022-07-23T08:16:15;8.80;;;7.90;;
4839;SDS011;2434;48.486;7.964;2022-07-23T08:18:44;8.30;;;7.50;;
4839;SDS011;2434;48.486;7.964;2022-07-23T08:21:12;11.00;;;7.43;;
4839;SDS011;2434;48.486;7.964;2022-07-23T08:23:41;9.40;;;7.67;;
4839;SDS011;2434;48.486;7.964;2022-07-23T08:26:09;8.17;;;7.40;;
4839;SDS011;2434;48.486;7.964;2022-07-23T08:28:38;8.10;;;7.30;;
4839;SDS011;2434;48.486;7.964;2022-07-23T08:31:08;11.53;;;7.87;;
4839;SDS011;2434;48.486;7.964;2022-07-23T08:33:38;9.50;;;7.80;;
4839;SDS011;2434;48.486;7.964;2022-07-23T08:36:07;8.50;;;7.80;;
4839;SDS011;2434;48.486;7.964;2022-07-23T08:38:36;10.40;;;8.47;;
4839;SDS011;2434;48.486;7.964;2022-07-23T08:41:04;10.47;;;7.70;;
4839;SDS011;2434;48.486;7.964;2022-07-23T08:43:35;10.40;;;9.03;;
4839;SDS011;2434;48.486;7.964;2022-07-23T08:46:04;10.40;;;8.13;;
4839;SDS011;2434;48.486;7.964;2022-07-23T08:48:34;10.60;;;8.40;;
4839;SDS011;2434;48.486;7.964;2022-07-23T08:51:05;8.67;;;7.87;;
4839;SDS011;2434;48.486;7.964;2022-07-23T08:53:37;9.07;;;8.23;;
4839;SDS011;2434;48.486;7.964;2022-07-23T08:56:08;9.47;;;8.50;;
4839;SDS011;2434;48.486;7.964;2022-07-23T08:58:37;9.33;;;8.30;;
4839;SDS011;2434;48.486;7.964;2022-07-23T09:01:05;9.03;;;8.13;;
4839;SDS011;2434;48.486;7.964;2022-07-23T09:03:35;8.80;;;7.83;;
4839;SDS011;2434;48.486;7.964;2022-07-23T09:06:05;9.80;;;8.90;;
4839;SDS011;2434;48.486;7.964;2022-07-23T09:08:35;9.43;;;8.57;;
4839;SDS011;2434;48.486;7.964;2022-07-23T09:11:05;9.03;;;8.07;;
4839;SDS011;2434;48.486;7.964;2022-07-23T09:13:37;13.60;;;8.37;;
4839;SDS011;2434;48.486;7.964;2022-07-23T09:16:09;10.77;;;8.80;;
4839;SDS011;2434;48.486;7.964;2022-07-23T09:18:42;9.57;;;8.53;;
4839;SDS011;2434;48.486;7.964;2022-07-23T09:21:16;8.43;;;7.47;;
4839;SDS011;2434;48.486;7.964;2022-07-23T09:23:54;8.33;;;7.43;;
4839;SDS011;2434;48.486;7.964;2022-07-23T09:26:30;8.93;;;8.13;;
4839;SDS011;2434;48.486;7.964;2022-07-23T09:29:04;8.17;;;7.30;;
4839;SDS011;2434;48.486;7.964;2022-07-23T09:31:44;9.80;;;7.30;;
4839;SDS011;2434;48.486;7.964;2022-07-23T09:34:17;9.00;;;8.17;;
4839;SDS011;2434;48.486;7.964;2022-07-23T09:36:50;11.37;;;7.00;;
4839;SDS011;2434;48.486;7.964;2022-07-23T09:39:24;9.17;;;8.27;;
4839;SDS011;2434;48.486;7.964;2022-07-23T09:41:55;12.10;;;8.00;;
4839;SDS011;2434;48.486;7.964;2022-07-23T09:44:24;12.13;;;8.60;;
4839;SDS011;2434;48.486;7.964;2022-07-23T09:46:57;11.97;;;6.90;;
4839;SDS011;2434;48.486;7.964;2022-07-23T09:49:29;8.63;;;7.00;;
4839;SDS011;2434;48.486;7.964;2022-07-23T09:51:59;11.90;;;8.03;;
4839;SDS011;2434;48.486;7.964;2022-07-23T09:54:32;7.60;;;6.93;;
4839;SDS011;2434;48.486;7.964;2022-07-23T09:57:03;8.53;;;7.30;;
4839;SDS011;2434;48.486;7.964;2022-07-23T09:59:35;9.53;;;8.23;;
4839;SDS011;2434;48.486;7.964;2022-07-23T10:02:05;7.57;;;6.83;;
4839;SDS011;2434;48.486;7.964;2022-07-23T10:04:46;12.17;;;7.90;;
4839;SDS011;2434;48.486;7.964;2022-07-23T10:07:25;12.80;;;6.57;;
4839;SDS011;2434;48.486;7.964;2022-07-23T10:10:15;7.60;;;6.90;;
4839;SDS011;2434;48.486;7.964;2022-07-23T10:13:03;7.40;;;6.70;;
4839;SDS011;2434;48.486;7.964;2022-07-23T10:15:48;7.90;;;7.27;;
4839;SDS011;2434;48.486;7.964;2022-07-23T10:18:17;9.03;;;7.10;;
4839;SDS011;2434;48.486;7.964;2022-07-23T10:20:48;6.50;;;5.90;;
4839;SDS011;2434;48.486;7.964;2022-07-23T10:23:19;6.80;;;6.20;;
4839;SDS011;2434;48.486;7.964;2022-07-23T10:25:55;6.70;;;6.10;;
4839;SDS011;2434;48.486;7.964;2022-07-23T10:28:32;9.03;;;6.27;;
4839;SDS011;2434;48.486;7.964;2022-07-23T10:31:26;6.17;;;5.47;;
4839;SDS011;2434;48.486;7.964;2022-07-23T10:34:24;6.10;;;5.60;;
4839;SDS011;2434;48.486;7.964;2022-07-23T10:37:01;6.13;;;5.63;;
4839;SDS011;2434;48.486;7.964;2022-07-23T10:39:35;7.17;;;6.50;;
4839;SDS011;2434;48.486;7.964;2022-07-23T10:42:10;8.53;;;6.40;;
4839;SDS011;2434;48.486;7.964;2022-07-23T10:44:40;6.70;;;6.10;;
4839;SDS011;2434;48.486;7.964;2022-07-23T10:47:10;6.67;;;6.07;;
4839;SDS011;2434;48.486;7.964;2022-07-23T10:49:55;7.27;;;6.67;;
4839;SDS011;2434;48.486;7.964;2022-07-23T10:55:50;8.83;;;6.77;;
4839;SDS011;2434;48.486;7.964;2022-07-23T10:58:20;6.03;;;5.53;;
4839;SDS011;2434;48.486;7.964;2022-07-23T11:00:50;8.40;;;6.50;;
4839;SDS011;2434;48.486;7.964;2022-07-23T11:03:29;7.90;;;6.53;;
4839;SDS011;2434;48.486;7.964;2022-07-23T11:05:59;7.57;;;6.17;;
4839;SDS011;2434;48.486;7.964;2022-07-23T11:08:30;7.93;;;6.80;;
4839;SDS011;2434;48.486;7.964;2022-07-23T11:11:08;8.20;;;6.67;;
4839;SDS011;2434;48.486;7.964;2022-07-23T11:13:41;8.47;;;7.67;;
4839;SDS011;2434;48.486;7.964;2022-07-23T11:16:14;9.60;;;7.80;;
4839;SDS011;2434;48.486;7.964;2022-07-23T11:18:54;10.70;;;6.90;;
4839;SDS011;2434;48.486;7.964;2022-07-23T11:21:40;9.00;;;8.13;;
4839;SDS011;2434;48.486;7.964;2022-07-23T11:24:11;8.70;;;7.90;;
4839;SDS011;2434;48.486;7.964;2022-07-23T11:26:47;7.90;;;7.20;;
4839;SDS011;2434;48.486;7.964;2022-07-23T11:29:46;9.07;;;6.73;;
4839;SDS011;2434;48.486;7.964;2022-07-23T11:35:21;8.83;;;7.97;;
4839;SDS011;2434;48.486;7.964;2022-07-23T11:37:52;8.27;;;7.40;;
4839;SDS011;2434;48.486;7.964;2022-07-23T11:40:26;12.77;;;8.57;;
4839;SDS011;2434;48.486;7.964;2022-07-23T11:42:55;8.53;;;7.73;;
4839;SDS011;2434;48.486;7.964;2022-07-23T11:45:30;9.07;;;8.17;;
4839;SDS011;2434;48.486;7.964;2022-07-23T11:47:59;7.77;;;7.07;;
4839;SDS011;2434;48.486;7.964;2022-07-23T11:50:28;7.67;;;6.97;;
4839;SDS011;2434;48.486;7.964;2022-07-23T11:52:57;9.80;;;8.80;;
4839;SDS011;2434;48.486;7.964;2022-07-23T11:55:27;15.23;;;7.53;;
4839;SDS011;2434;48.486;7.964;2022-07-23T11:57:56;8.00;;;7.27;;
4839;SDS011;2434;48.486;7.964;2022-07-23T12:00:26;8.23;;;7.53;;
4839;SDS011;2434;48.486;7.964;2022-07-23T12:02:56;8.10;;;7.30;;
4839;SDS011;2434;48.486;7.964;2022-07-23T12:05:28;9.37;;;6.90;;
4839;SDS011;2434;48.486;7.964;2022-07-23T12:07:58;14.13;;;7.90;;
4839;SDS011;2434;48.486;7.964;2022-07-23T12:10:29;8.00;;;7.30;;
4839;SDS011;2434;48.486;7.964;2022-07-23T12:13:03;10.37;;;7.00;;
4839;SDS011;2434;48.486;7.964;2022-07-23T12:15:34;8.83;;;7.90;;
4839;SDS011;2434;48.486;7.964;2022-07-23T12:18:06;7.93;;;7.10;;
4839;SDS011;2434;48.486;7.964;2022-07-23T12:20:38;10.43;;;7.80;;
4839;SDS011;2434;48.486;7.964;2022-07-23T12:23:10;9.03;;;8.20;;
4839;SDS011;2434;48.486;7.964;2022-07-23T12:25:48;8.13;;;7.40;;
4839;SDS011;2434;48.486;7.964;2022-07-23T12:28:18;8.20;;;7.50;;
4839;SDS011;2434;48.486;7.964;2022-07-23T12:30:47;8.43;;;7.53;;
4839;SDS011;2434;48.486;7.964;2022-07-23T12:33:21;7.70;;;7.10;;
4839;SDS011;2434;48.486;7.964;2022-07-23T12:35:52;9.43;;;7.43;;
4839;SDS011;2434;48.486;7.964;2022-07-23T12:38:22;7.73;;;7.03;;
4839;SDS011;2434;48.486;7.964;2022-07-23T12:40:54;8.40;;;7.60;;
4839;SDS011;2434;48.486;7.964;2022-07-23T12:43:25;8.83;;;8.03;;
4839;SDS011;2434;48.486;7.964;2022-07-23T12:45:56;12.83;;;7.50;;
4839;SDS011;2434;48.486;7.964;2022-07-23T12:48:30;9.33;;;8.50;;
4839;SDS011;2434;48.486;7.964;2022-07-23T12:51:01;9.60;;;8.70;;
4839;SDS011;2434;48.486;7.964;2022-07-23T12:53:31;8.90;;;8.10;;
4839;SDS011;2434;48.486;7.964;2022-07-23T12:56:03;10.40;;;8.97;;
4839;SDS011;2434;48.486;7.964;2022-07-23T12:58:42;10.03;;;8.30;;
4839;SDS011;2434;48.486;7.964;2022-07-23T13:01:24;10.13;;;9.23;;
4839;SDS011;2434;48.486;7.964;2022-07-23T13:03:55;8.33;;;7.53;;
4839;SDS011;2434;48.486;7.964;2022-07-23T13:06:26;8.87;;;7.87;;
4839;SDS011;2434;48.486;7.964;2022-07-23T13:08:55;10.03;;;8.97;;
4839;SDS011;2434;48.486;7.964;2022-07-23T13:11:25;9.87;;;8.97;;
4839;SDS011;2434;48.486;7.964;2022-07-23T13:13:53;11.20;;;8.10;;
4839;SDS011;2434;48.486;7.964;2022-07-23T13:16:22;8.20;;;6.87;;
4839;SDS011;2434;48.486;7.964;2022-07-23T13:18:53;8.20;;;7.50;;
4839;SDS011;2434;48.486;7.964;2022-07-23T13:21:25;10.53;;;9.17;;
4839;SDS011;2434;48.486;7.964;2022-07-23T13:23:54;10.03;;;9.13;;
4839;SDS011;2434;48.486;7.964;2022-07-23T13:26:23;8.70;;;7.90;;
4839;SDS011;2434;48.486;7.964;2022-07-23T13:28:53;9.17;;;8.20;;
4839;SDS011;2434;48.486;7.964;2022-07-23T13:31:21;12.33;;;8.33;;
4839;SDS011;2434;48.486;7.964;2022-07-23T13:33:50;11.70;;;9.43;;
4839;SDS011;2434;48.486;7.964;2022-07-23T13:36:18;8.43;;;7.73;;
4839;SDS011;2434;48.486;7.964;2022-07-23T13:38:47;9.60;;;8.00;;
4839;SDS011;2434;48.486;7.964;2022-07-23T13:41:16;10.07;;;8.30;;
4839;SDS011;2434;48.486;7.964;2022-07-23T13:43:46;10.07;;;8.20;;
4839;SDS011;2434;48.486;7.964;2022-07-23T13:46:14;8.67;;;7.97;;
4839;SDS011;2434;48.486;7.964;2022-07-23T13:48:46;9.17;;;7.93;;
4839;SDS011;2434;48.486;7.964;2022-07-23T13:51:15;9.53;;;8.63;;
4839;SDS011;2434;48.486;7.964;2022-07-23T13:53:45;9.67;;;8.77;;
4839;SDS011;2434;48.486;7.964;2022-07-23T13:56:15;9.00;;;7.70;;
4839;SDS011;2434;48.486;7.964;2022-07-23T13:58:44;9.27;;;8.37;;
4839;SDS011;2434;48.486;7.964;2022-07-23T14:01:14;13.47;;;8.67;;
4839;SDS011;2434;48.486;7.964;2022-07-23T14:03:43;8.47;;;7.77;;
4839;SDS011;2434;48.486;7.964;2022-07-23T14:06:12;7.70;;;6.93;;
4839;SDS011;2434;48.486;7.964;2022-07-23T14:08:42;8.67;;;7.67;;
4839;SDS011;2434;48.486;7.964;2022-07-23T14:11:11;9.20;;;8.20;;
4839;SDS011;2434;48.486;7.964;2022-07-23T14:13:39;8.00;;;7.30;;
4839;SDS011;2434;48.486;7.964;2022-07-23T14:16:09;9.77;;;7.70;;
4839;SDS011;2434;48.486;7.964;2022-07-23T14:18:37;11.40;;;8.17;;
4839;SDS011;2434;48.486;7.964;2022-07-23T14:21:06;13.77;;;8.63;;
4839;SDS011;2434;48.486;7.964;2022-07-23T14:23:34;8.63;;;7.77;;
4839;SDS011;2434;48.486;7.964;2022-07-23T14:26:04;12.80;;;7.93;;
4839;SDS011;2434;48.486;7.964;2022-07-23T14:28:33;12.73;;;7.83;;
4839;SDS011;2434;48.486;7.964;2022-07-23T14:31:01;8.93;;;8.10;;
4839;SDS011;2434;48.486;7.964;2022-07-23T14:33:32;8.37;;;7.67;;
4839;SDS011;2434;48.486;7.964;2022-07-23T14:36:00;8.73;;;7.60;;
4839;SDS011;2434;48.486;7.964;2022-07-23T14:38:29;8.33;;;7.63;;
4839;SDS011;2434;48.486;7.964;2022-07-23T14:40:58;9.07;;;7.40;;
4839;SDS011;2434;48.486;7.964;2022-07-23T14:43:26;8.23;;;7.53;;
4839;SDS011;2434;48.486;7.964;2022-07-23T14:45:54;11.10;;;7.47;;
4839;SDS011;2434;48.486;7.964;2022-07-23T14:48:23;11.30;;;8.77;;
4839;SDS011;2434;48.486;7.964;2022-07-23T14:50:53;8.97;;;8.07;;
4839;SDS011;2434;48.486;7.964;2022-07-23T14:53:21;10.33;;;7.87;;
4839;SDS011;2434;48.486;7.964;2022-07-23T14:55:51;9.00;;;8.20;;
4839;SDS011;2434;48.486;7.964;2022-07-23T14:58:20;8.47;;;7.67;;
4839;SDS011;2434;48.486;7.964;2022-07-23T15:00:49;8.03;;;7.23;;
4839;SDS011;2434;48.486;7.964;2022-07-23T15:03:17;9.03;;;8.27;;
4839;SDS011;2434;48.486;7.964;2022-07-23T15:05:46;9.27;;;8.47;;
4839;SDS011;2434;48.486;7.964;2022-07-23T15:08:15;9.30;;;8.40;;
4839;SDS011;2434;48.486;7.964;2022-07-23T15:10:49;8.97;;;8.10;;
4839;SDS011;2434;48.486;7.964;2022-07-23T15:13:17;8.57;;;7.77;;
4839;SDS011;2434;48.486;7.964;2022-07-23T15:15:46;7.97;;;7.27;;
4839;SDS011;2434;48.486;7.964;2022-07-23T15:18:17;7.50;;;6.80;;
4839;SDS011;2434;48.486;7.964;2022-07-23T15:20:45;9.50;;;6.80;;
4839;SDS011;2434;48.486;7.964;2022-07-23T15:23:14;8.20;;;7.37;;
4839;SDS011;2434;48.486;7.964;2022-07-23T15:25:45;8.23;;;7.27;;
4839;SDS011;2434;48.486;7.964;2022-07-23T15:28:16;7.43;;;6.77;;
4839;SDS011;2434;48.486;7.964;2022-07-23T15:30:47;7.63;;;7.00;;
4839;SDS011;2434;48.486;7.964;2022-07-23T15:33:16;12.83;;;7.57;;
4839;SDS011;2434;48.486;7.964;2022-07-23T15:35:47;9.00;;;7.70;;
4839;SDS011;2434;48.486;7.964;2022-07-23T15:38:17;7.10;;;6.43;;
4839;SDS011;2434;48.486;7.964;2022-07-23T15:40:51;13.07;;;6.77;;
4839;SDS011;2434;48.486;7.964;2022-07-23T15:43:21;7.90;;;7.30;;